Airfield :
LOGIN :

Register | Disclaimer

   EN    FR    IT 

 










Legend :    VFR   Marginal VFR   IFR   Intensive IFR   Very Intensive IFR
Visi :
Ceiling :
>= 8 km
>= 3000ft
5 to 8 km
1000 to 3000 ft
1500m to 5 km
500 to 1000 ft
800 to 1500m
200 to 500 ft
< 800m
< 200 ft
Symbols :   Thunderstorms  Fog  Heavy snow  Heavy precipitations  Wind > 20 kt
SIGMETs :     Misc.  Thunderstorms  Icing  Turbulence  Mountain Waves  Volcanic Ashes






- Airport Elevation : 17 ft
- IATA code : MHQ


EFMA - Mariehamn

CURRENT METAR :
  • 192350Z AUTO 34006KT 9999 -SN OVC014 00/M01 Q1005

EXPIRED METARs :
  • 192320Z AUTO 34008KT 9999 -SN BKN012 OVC047 00/M02 Q1005
  • 192250Z AUTO 33008KT 9999 FEW012 OVC047 01/M02 Q1006
  • 192220Z AUTO 33008KT 9999 FEW012 OVC048 01/M02 Q1006
  • 192150Z AUTO 33007KT 9999 FEW013 OVC042 01/M02 Q1006
  • 192120Z AUTO 34008KT 9999 FEW014 OVC048 01/M02 Q1006
  • 192050Z AUTO 33010KT 9999 FEW015 OVC050 01/M02 Q1006
  • 192020Z AUTO 33010KT 300V360 9999 FEW016 01/M03 Q1006
  • 191950Z AUTO 34009KT 310V010 9999 FEW018 01/M03 Q1006
  • 191920Z AUTO 33008KT 300V360 CAVOK 01/M04 Q1006

TAF TAF EFMA
Valid from the 20 at 00:00 until the 20 at 09:00 UTC


192334Z 2000/2009 35009KT 9999 -SN SCT020
TEMPO 2000/2009 5000 BKN012



MET'MAP, your aeronautical weather chart ! - Copyright ORBIFLY December 2007 - Disclaimer

ORBIFLY MET'MAP TEAM :

Programming & Development : Alexandra Zaïnal
Original concept : Baudouin d'Aumeries
Technical & hardware support : Manuel Goepfert
Assistance : Marc-Olivier Méhu




SOURCES & CREDITS :

   NOAA